Terminal Aerodrome Forecast
Issued by NWS

Home | Current Version | Previous Version | Text Only | Print | Product List | Glossary On
Versions: 1 2 3 4 5 6 7 8 9 10 11 12 13 14 15 16 17 18 19 20 21 22 23 24 25
000
FTAK31 PAFG 251137
TAFAGA
TAF
PAGA 251137Z 2512/2612 09006KT P6SM VCSH SCT025 BKN035 OVC050
     FM251500 12010KT 6SM -SNRA BR SCT015 BKN025 OVC035
     FM251800 12010KT 4SM -RASN BR SCT007 BKN015 OVC025
     FM252100 13012G20KT 1 1/2SM -RA BR SCT007 OVC015
     FM260300 12015KT 6SM -RA BR BKN025 BKN035 OVC050
     FM260600 15012KT P6SM VCSH SCT025 BKN035 OVC050=

USA.gov is the U.S. government's official web portal to all federal, state and local government web resources and services.